Time;durP1;ratioP1;P1;durP2;ratioP2;P2;SDS_P1;SDS_P2;PMS_P1;PMS_P2;Temp;Humidity;BMP_temperature;BMP_pressure;BME280_temperature;BME280_humidity;BME280_pressure;Samples;Min_cycle;Max_cycle;Signal;HPM_P1;HPM_P2
2023/04/10 12:08:41;;;;;;;4.78;2.50;;;;;;;18.13;35.58;94956.91;5088461;22;20079;-86
2023/04/10 12:11:11;;;;;;;6.60;2.70;;;;;;;18.40;34.58;94960.53;5042068;28;20040;-86
2023/04/10 12:13:37;;;;;;;3.25;2.33;;;;;;;18.96;35.78;94952.25;5058935;28;20352;-86
2023/04/10 12:16:08;;;;;;;3.70;2.00;;;;;;;18.58;31.75;94959.56;5042244;28;20028;-85
2023/04/10 12:18:34;;;;;;;4.28;2.63;;;;;;;18.24;34.64;94958.25;5022302;28;20072;-85
2023/04/10 12:21:00;;;;;;;4.55;2.20;;;;;;;17.86;34.73;94953.22;5039000;28;20071;-87
2023/04/10 12:23:26;;;;;;;4.43;2.65;;;;;;;17.19;33.73;94950.09;5039298;28;20346;-86
2023/04/10 12:25:53;;;;;;;2.97;2.10;;;;;;;17.52;31.71;94958.69;5038892;28;20025;-86
2023/04/10 12:28:20;;;;;;;3.17;2.00;;;;;;;18.01;33.28;94952.13;5023976;28;20078;-86
2023/04/10 12:30:51;;;;;;;3.22;2.15;;;;;;;18.35;38.13;94945.50;5058797;28;20056;-86
2023/04/10 12:33:22;;;;;;;7.72;2.20;;;;;;;19.00;35.28;94948.69;5058934;28;20429;-86
2023/04/10 12:35:47;;;;;;;2.63;1.88;;;;;;;18.62;30.71;94949.91;5058734;28;20028;-85
2023/04/10 12:38:12;;;;;;;2.05;1.45;;;;;;;17.92;29.63;94952.03;5041708;28;20051;-86
2023/04/10 12:40:40;;;;;;;3.40;1.90;;;;;;;18.06;29.46;94944.06;5042345;28;20052;-86
2023/04/10 12:43:05;;;;;;;2.75;1.60;;;;;;;17.45;29.48;94939.78;5058555;28;20058;-86
2023/04/10 12:45:44;;;;;;;2.60;1.90;;;;;;;17.53;31.05;94936.44;5058733;28;20020;-90
2023/04/10 12:48:09;;;;;;;5.95;2.70;;;;;;;17.62;33.59;94941.03;5058151;28;20032;-86
2023/04/10 12:50:49;;;;;;;3.55;2.53;;;;;;;17.51;31.29;94930.66;5044212;28;20460;-86
2023/04/10 12:53:15;;;;;;;3.90;2.53;;;;;;;18.53;31.81;94933.16;5046860;28;20075;-86
2023/04/10 12:55:41;;;;;;;3.53;2.00;;;;;;;17.36;30.68;94923.81;5062854;28;20368;-85
2023/04/10 12:58:19;;;;;;;3.33;1.90;;;;;;;18.65;29.93;94929.94;5045764;28;20048;-85
2023/04/10 13:00:45;;;;;;;2.50;1.60;;;;;;;17.98;26.91;94934.16;5062697;28;20127;-85
2023/04/10 13:03:11;;;;;;;3.40;1.98;;;;;;;18.57;31.28;94925.38;5046177;28;20051;-85
2023/04/10 13:05:36;;;;;;;2.88;1.88;;;;;;;19.02;28.85;94927.94;5062511;28;20028;-86
2023/04/10 13:08:02;;;;;;;4.80;2.80;;;;;;;18.98;31.80;94926.94;5045382;28;20146;-86
2023/04/10 13:10:27;;;;;;;4.03;1.92;;;;;;;19.33;30.22;94921.00;5062662;28;20365;-85
2023/04/10 13:12:53;;;;;;;5.88;2.47;;;;;;;18.54;30.74;94925.97;5045981;28;20020;-87
2023/04/10 13:15:18;;;;;;;4.38;2.45;;;;;;;19.45;31.30;94913.22;5062607;28;20020;-86
2023/04/10 13:17:44;;;;;;;4.43;2.55;;;;;;;20.17;30.78;94910.25;5062010;28;20025;-87
2023/04/10 13:20:10;;;;;;;6.05;2.60;;;;;;;19.73;30.50;94914.78;5062751;28;20368;-87
2023/04/10 13:22:35;;;;;;;5.60;2.97;;;;;;;19.38;32.68;94909.44;5062497;28;20031;-87
2023/04/10 13:25:03;;;;;;;5.65;2.53;;;;;;;19.39;31.98;94906.47;5045911;28;20368;-88
2023/04/10 13:27:28;;;;;;;2.67;1.95;;;;;;;18.04;31.04;94909.91;5045934;28;20052;-87
2023/04/10 13:29:54;;;;;;;4.75;2.13;;;;;;;18.29;29.28;94914.91;5061924;28;20051;-87
2023/04/10 13:32:20;;;;;;;3.00;2.20;;;;;;;19.20;28.83;94917.34;5062459;28;20077;-87
2023/04/10 13:34:45;;;;;;;7.50;2.80;;;;;;;19.73;31.24;94912.13;5080052;28;20028;-87
2023/04/10 13:37:13;;;;;;;4.93;2.13;;;;;;;19.35;31.36;94908.19;5045723;28;20131;-85
2023/04/10 13:39:39;;;;;;;3.15;2.00;;;;;;;18.91;28.28;94903.50;5062177;28;20032;-86
2023/04/10 13:42:04;;;;;;;5.20;2.40;;;;;;;19.01;29.42;94909.63;5061967;28;20051;-85
2023/04/10 13:44:30;;;;;;;4.45;1.70;;;;;;;20.00;27.89;94907.63;5045213;28;20093;-86
2023/04/10 13:46:56;;;;;;;2.35;1.63;;;;;;;19.69;27.02;94908.53;5061883;28;20055;-85
2023/04/10 13:49:22;;;;;;;3.83;2.10;;;;;;;19.25;27.88;94909.25;5079078;28;20048;-86
2023/04/10 13:51:48;;;;;;;3.25;1.65;;;;;;;19.46;28.68;94900.69;5060391;28;20051;-86
2023/04/10 13:54:15;;;;;;;2.38;1.70;;;;;;;19.36;28.40;94904.44;5044859;28;20024;-86
2023/04/10 13:56:41;;;;;;;4.30;1.70;;;;;;;18.62;27.27;94902.13;5061768;28;20020;-86
2023/04/10 13:59:06;;;;;;;3.45;1.90;;;;;;;19.01;31.22;94899.00;5061454;28;20044;-86
2023/04/10 14:01:32;;;;;;;4.07;2.00;;;;;;;19.32;27.21;94904.25;5060771;28;20075;-86
2023/04/10 14:03:57;;;;;;;3.15;2.10;;;;;;;19.43;29.13;94896.00;5061421;28;20115;-86
2023/04/10 14:06:23;;;;;;;3.72;1.98;;;;;;;19.89;31.69;94902.59;5061450;28;20408;-86
2023/04/10 14:08:48;;;;;;;2.88;1.70;;;;;;;20.82;27.45;94906.06;5060914;28;20028;-86
2023/04/10 14:11:13;;;;;;;3.55;1.40;;;;;;;20.38;26.07;94892.84;5079279;28;20028;-86
2023/04/10 14:13:39;;;;;;;2.53;1.70;;;;;;;19.95;25.89;94908.56;5061174;28;20032;-86
2023/04/10 14:16:05;;;;;;;2.85;1.60;;;;;;;20.86;26.66;94901.66;5061196;28;20036;-85
2023/04/10 14:18:30;;;;;;;2.58;1.80;;;;;;;20.52;27.46;94903.31;5063623;28;20024;-86
2023/04/10 14:20:56;;;;;;;2.92;2.05;;;;;;;20.97;27.86;94894.09;5061944;28;20073;-86
2023/04/10 14:23:21;;;;;;;4.10;1.83;;;;;;;20.62;27.54;94892.31;5045575;28;20119;-86
2023/04/10 14:25:48;;;;;;;3.63;2.20;;;;;;;19.31;28.60;94894.72;5062304;28;20031;-86
2023/04/10 14:28:16;;;;;;;3.45;2.03;;;;;;;19.72;28.07;94895.38;5044460;28;20082;-86
2023/04/10 14:30:51;;;;;;;4.43;2.63;;;;;;;19.90;28.38;94880.22;5045520;28;20025;-86
2023/04/10 14:33:17;;;;;;;14.43;8.73;;;;;;;22.17;27.08;94894.69;5061597;28;20690;-86
2023/04/10 14:35:44;;;;;;;2.47;1.85;;;;;;;21.69;27.50;94885.38;5061642;28;20073;-86
2023/04/10 14:38:09;;;;;;;3.50;1.90;;;;;;;22.26;27.07;94880.50;5060603;28;20111;-86
2023/04/10 14:40:35;;;;;;;2.33;1.63;;;;;;;23.30;26.17;94887.63;5031756;28;20182;-87
2023/04/10 14:43:01;;;;;;;2.53;2.03;;;;;;;23.49;25.51;94881.69;5078860;28;20518;-84
2023/04/10 14:45:26;;;;;;;5.45;1.80;;;;;;;23.73;24.74;94878.19;5061016;28;20033;-84
2023/04/10 14:47:52;;;;;;;4.03;2.20;;;;;;;22.99;25.27;94878.25;5078296;28;20027;-84
2023/04/10 14:50:18;;;;;;;2.85;2.00;;;;;;;22.37;25.63;94878.94;5043875;28;20353;-85
2023/04/10 14:52:43;;;;;;;2.80;2.00;;;;;;;21.60;25.76;94866.75;5044103;28;20028;-84
2023/04/10 14:55:09;;;;;;;2.30;1.50;;;;;;;22.83;23.94;94878.94;5043993;28;20020;-84
2023/04/10 14:57:35;;;;;;;1.88;1.50;;;;;;;21.66;24.70;94878.00;5060462;28;20032;-85
2023/04/10 15:00:01;;;;;;;3.33;1.80;;;;;;;23.56;22.91;94873.09;5060034;28;20037;-84
2023/04/10 15:02:28;;;;;;;2.20;1.55;;;;;;;22.01;24.15;94875.84;5060371;28;20025;-84
2023/04/10 15:04:54;;;;;;;2.45;1.95;;;;;;;24.75;23.42;94869.34;5043787;28;20029;-84
2023/04/10 15:07:19;;;;;;;3.25;1.50;;;;;;;24.07;22.29;94872.63;5060583;28;20028;-84
2023/04/10 15:09:45;;;;;;;6.03;1.42;;;;;;;24.86;21.91;94865.03;5060057;28;20346;-84
2023/04/10 15:12:10;;;;;;;2.13;1.52;;;;;;;24.10;22.65;94863.94;5077993;28;20029;-84
2023/04/10 15:14:35;;;;;;;2.22;1.38;;;;;;;26.18;19.84;94861.28;5059386;28;20097;-84
2023/04/10 15:17:01;;;;;;;1.30;1.13;;;;;;;24.60;21.16;94855.59;5059975;28;20032;-84
2023/04/10 15:19:26;;;;;;;3.42;1.20;;;;;;;27.80;20.00;94849.53;5059589;28;20449;-84
2023/04/10 15:21:53;;;;;;;2.75;2.05;;;;;;;26.53;20.97;94844.22;5077730;28;20031;-84
2023/04/10 15:24:18;;;;;;;2.42;1.52;;;;;;;26.29;20.88;94846.16;5043535;28;20029;-84
2023/04/10 15:26:44;;;;;;;1.15;1.05;;;;;;;24.51;19.76;94834.34;5042378;28;20035;-84
2023/04/10 15:29:13;;;;;;;1.90;1.17;;;;;;;25.67;19.14;94841.50;5023176;28;20025;-84
2023/04/10 15:31:38;;;;;;;1.75;1.05;;;;;;;23.14;20.50;94840.19;5040417;28;20323;-84
2023/04/10 15:34:04;;;;;;;1.95;1.00;;;;;;;23.50;20.46;94829.00;5039857;28;20091;-85
2023/04/10 15:36:31;;;;;;;1.40;1.20;;;;;;;24.31;21.78;94830.00;5039773;28;20025;-84
2023/04/10 15:38:58;;;;;;;1.27;1.08;;;;;;;24.77;20.56;94833.06;5057105;28;20035;-85
2023/04/10 15:41:24;;;;;;;1.90;1.27;;;;;;;23.26;21.56;94838.59;5023360;28;20037;-85
2023/04/10 15:43:49;;;;;;;4.15;1.30;;;;;;;23.73;20.89;94840.72;5039600;28;20028;-85
2023/04/10 15:46:16;;;;;;;1.90;1.27;;;;;;;24.36;20.70;94841.22;5039625;28;20032;-85
2023/04/10 15:48:42;;;;;;;2.25;1.30;;;;;;;24.66;22.02;94837.38;5039392;28;20028;-84
2023/04/10 15:51:07;;;;;;;2.13;1.10;;;;;;;23.67;21.18;94841.31;5039491;28;20029;-84
2023/04/10 15:53:33;;;;;;;1.45;1.10;;;;;;;22.45;22.30;94845.25;5023004;28;20089;-84
2023/04/10 15:55:59;;;;;;;4.45;1.98;;;;;;;24.04;21.87;94845.78;5023080;28;20036;-84
2023/04/10 15:58:24;;;;;;;2.53;1.45;;;;;;;24.37;21.89;94845.47;5039037;28;20449;-84
2023/04/10 16:00:50;;;;;;;2.00;1.42;;;;;;;24.11;22.36;94843.28;5039701;28;20033;-84
2023/04/10 16:03:15;;;;;;;4.60;1.67;;;;;;;25.24;21.39;94834.09;5039269;28;20036;-84
2023/04/10 16:05:40;;;;;;;1.83;1.20;;;;;;;26.72;21.47;94842.63;5039335;28;20031;-84
2023/04/10 16:08:06;;;;;;;2.35;1.50;;;;;;;26.37;20.34;94845.13;5038859;28;20100;-85
2023/04/10 16:10:31;;;;;;;3.05;1.50;;;;;;;27.43;19.32;94836.75;5039177;28;20071;-84
2023/04/10 16:13:02;;;;;;;3.38;1.63;;;;;;;24.69;21.07;94834.00;5039204;28;20449;-84
2023/04/10 16:15:28;;;;;;;2.97;1.50;;;;;;;22.34;23.23;94842.25;5039818;28;20020;-84
2023/04/10 16:17:54;;;;;;;3.60;1.33;;;;;;;22.37;23.27;94844.25;5022051;28;20035;-84
2023/04/10 16:20:19;;;;;;;3.13;1.70;;;;;;;23.38;23.21;94835.94;5039084;28;20473;-84
2023/04/10 16:22:45;;;;;;;2.72;1.80;;;;;;;24.30;23.16;94834.59;5056804;28;20031;-84
2023/04/10 16:25:10;;;;;;;3.72;1.63;;;;;;;23.05;22.53;94830.72;5038588;28;20028;-84
2023/04/10 16:27:35;;;;;;;2.20;1.50;;;;;;;25.53;22.18;94832.03;5056948;28;20031;-84
2023/04/10 16:30:01;;;;;;;2.72;1.90;;;;;;;21.73;24.43;94832.94;5039099;28;20540;-84
2023/04/10 16:32:26;;;;;;;1.70;1.35;;;;;;;21.94;24.05;94829.47;5038934;28;20032;-84
2023/04/10 16:34:52;;;;;;;1.98;1.42;;;;;;;23.43;24.32;94834.94;5038776;28;20055;-84
2023/04/10 16:37:17;;;;;;;2.58;1.80;;;;;;;21.80;25.16;94837.75;5042550;28;20029;-84
2023/04/10 16:39:43;;;;;;;2.30;1.60;;;;;;;20.57;25.63;94832.03;5038324;28;20381;-85
2023/04/10 16:42:08;;;;;;;3.47;1.55;;;;;;;21.90;24.45;94832.03;5022595;28;20107;-85
2023/04/10 16:44:34;;;;;;;52.67;24.60;;;;;;;24.94;23.93;94833.81;5038705;28;20083;-85
2023/04/10 16:47:02;;;;;;;2.90;1.60;;;;;;;23.10;23.61;94830.53;5038700;28;20036;-84
2023/04/10 16:49:30;;;;;;;2.20;1.60;;;;;;;22.54;23.52;94829.94;5056399;28;20021;-84
2023/04/10 16:51:56;;;;;;;2.10;1.52;;;;;;;23.53;23.23;94829.13;5056684;28;20057;-84
2023/04/10 16:54:23;;;;;;;7.40;5.15;;;;;;;23.69;24.38;94829.16;5041761;28;20078;-83
2023/04/10 16:56:49;;;;;;;3.00;1.75;;;;;;;22.58;24.27;94840.75;5058492;28;20426;-84
2023/04/10 16:59:18;;;;;;;2.90;1.70;;;;;;;20.88;25.38;94836.34;5055998;28;20098;-86
2023/04/10 17:01:43;;;;;;;7.18;3.55;;;;;;;20.10;27.16;94832.03;5076412;28;20468;-86
2023/04/10 17:04:08;;;;;;;3.50;1.90;;;;;;;18.78;29.92;94830.84;5058454;28;20036;-86
2023/04/10 17:06:37;;;;;;;3.75;2.05;;;;;;;18.33;29.55;94825.69;5041737;28;20437;-86
2023/04/10 17:09:03;;;;;;;2.70;1.98;;;;;;;18.05;29.97;94824.00;5055887;28;20118;-86
2023/04/10 17:11:28;;;;;;;4.68;2.13;;;;;;;16.85;31.38;94827.63;5038497;28;20024;-85
2023/04/10 17:13:53;;;;;;;3.30;1.90;;;;;;;16.90;31.80;94830.19;5056146;28;20021;-85
2023/04/10 17:16:19;;;;;;;5.85;2.03;;;;;;;16.82;30.89;94831.66;5056167;28;20028;-85
2023/04/10 17:18:44;;;;;;;3.78;1.85;;;;;;;16.27;31.63;94827.13;5021803;28;20029;-85
2023/04/10 17:21:13;;;;;;;3.35;2.00;;;;;;;16.38;31.88;94825.88;5038439;28;20035;-85
2023/04/10 17:23:39;;;;;;;3.10;2.05;;;;;;;16.10;32.50;94825.06;5021997;28;20025;-85
2023/04/10 17:26:05;;;;;;;4.88;2.47;;;;;;;15.99;32.99;94827.06;5038415;28;20423;-85
2023/04/10 17:28:34;;;;;;;5.50;2.35;;;;;;;16.19;32.43;94828.59;5037993;28;20021;-85
2023/04/10 17:31:00;;;;;;;15.32;8.88;;;;;;;16.12;33.02;94828.19;5021801;28;20058;-85
2023/04/10 17:33:27;;;;;;;4.22;2.53;;;;;;;15.85;33.21;94821.72;5056009;28;20124;-86
2023/04/10 17:35:52;;;;;;;3.33;2.05;;;;;;;15.68;33.64;94830.19;5021890;28;20051;-85
2023/04/10 17:38:18;;;;;;;3.30;2.05;;;;;;;15.86;34.65;94831.22;5024166;28;20039;-85
2023/04/10 17:40:44;;;;;;;4.03;2.30;;;;;;;15.60;33.84;94826.34;5041927;28;20029;-86
2023/04/10 17:43:09;;;;;;;5.70;2.33;;;;;;;15.63;34.58;94833.69;5042140;28;20032;-85
2023/04/10 17:45:36;;;;;;;3.05;2.20;;;;;;;15.72;34.88;94823.28;5025369;28;20513;-85
2023/04/10 17:48:01;;;;;;;3.67;2.10;;;;;;;14.95;35.69;94827.78;5041429;28;20437;-85
2023/04/10 17:50:27;;;;;;;3.58;2.28;;;;;;;14.89;36.02;94823.63;5041845;28;20025;-85
2023/04/10 17:52:53;;;;;;;4.47;2.38;;;;;;;15.35;35.41;94823.03;5041881;28;20112;-85
2023/04/10 17:55:18;;;;;;;4.35;2.63;;;;;;;15.26;35.40;94822.84;5041997;28;20064;-85
2023/04/10 17:57:44;;;;;;;4.78;2.13;;;;;;;15.11;35.82;94820.44;5041331;28;20350;-85
2023/04/10 18:00:14;;;;;;;4.47;2.58;;;;;;;15.01;36.54;94818.72;5024912;28;20032;-85
2023/04/10 18:02:43;;;;;;;3.90;2.30;;;;;;;14.85;36.42;94818.13;5025540;28;20033;-85
2023/04/10 18:05:08;;;;;;;4.30;2.40;;;;;;;14.91;36.44;94818.84;5025248;28;20021;-86
2023/04/10 18:07:34;;;;;;;6.07;2.60;;;;;;;14.73;36.49;94825.66;5025267;28;20406;-85
2023/04/10 18:09:59;;;;;;;6.82;2.22;;;;;;;14.42;37.36;94822.28;5041161;28;20036;-85
2023/04/10 18:12:24;;;;;;;8.02;2.35;;;;;;;14.90;36.83;94815.44;5041355;28;20450;-85
2023/04/10 18:14:50;;;;;;;4.47;2.70;;;;;;;14.72;36.86;94810.91;5041351;28;20028;-85
2023/04/10 18:17:15;;;;;;;4.18;2.50;;;;;;;14.10;38.54;94807.81;5041247;28;20037;-85
2023/04/10 18:19:41;;;;;;;3.97;2.30;;;;;;;14.66;37.33;94812.78;5058629;28;20040;-85
2023/04/10 18:22:06;;;;;;;5.10;2.80;;;;;;;13.88;39.44;94816.19;5041552;28;20063;-85
2023/04/10 18:24:31;;;;;;;6.53;2.92;;;;;;;14.04;39.65;94816.03;5041172;28;20107;-85
2023/04/10 18:26:57;;;;;;;9.75;3.35;;;;;;;13.90;39.97;94824.59;5059245;28;20029;-85
2023/04/10 18:29:25;;;;;;;6.40;3.25;;;;;;;13.89;40.54;94820.38;5040577;28;20430;-86
2023/04/10 18:31:51;;;;;;;6.65;2.78;;;;;;;14.03;39.08;94831.09;5041368;28;20028;-85
2023/04/10 18:34:16;;;;;;;5.38;2.88;;;;;;;13.67;39.45;94824.25;5040830;28;20063;-85
2023/04/10 18:36:41;;;;;;;8.10;3.15;;;;;;;13.83;39.56;94832.03;5024651;28;20414;-85
2023/04/10 18:39:07;;;;;;;5.72;3.10;;;;;;;14.32;39.10;94830.28;5024207;28;20036;-85
2023/04/10 18:41:32;;;;;;;4.55;2.85;;;;;;;14.33;38.94;94829.22;5040913;28;20416;-85
2023/04/10 18:43:58;;;;;;;4.88;2.85;;;;;;;14.31;38.75;94833.19;5041076;28;20100;-85
2023/04/10 18:46:26;;;;;;;5.60;2.83;;;;;;;14.30;38.91;94834.25;5041023;28;20029;-85
2023/04/10 18:48:54;;;;;;;16.33;3.60;;;;;;;13.51;40.86;94851.75;5040318;28;20075;-85
2023/04/10 18:51:21;;;;;;;4.85;2.95;;;;;;;12.53;43.29;94845.88;5043281;28;20059;-85
2023/04/10 18:53:46;;;;;;;4.13;2.35;;;;;;;13.03;42.83;94842.50;5043967;28;20128;-85
2023/04/10 18:56:12;;;;;;;4.22;2.90;;;;;;;13.17;41.69;94845.34;5060514;28;20462;-85
2023/04/10 18:58:37;;;;;;;6.63;2.83;;;;;;;13.24;41.27;94842.41;5043373;28;20365;-87
2023/04/10 19:01:02;;;;;;;5.40;2.67;;;;;;;13.36;40.86;94839.44;5075878;28;20067;-87
2023/04/10 19:03:28;;;;;;;8.55;3.58;;;;;;;13.45;40.77;94851.00;5059994;28;20410;-87
2023/04/10 19:05:53;;;;;;;7.18;3.22;;;;;;;13.62;40.98;94837.44;5056383;28;20037;-87
2023/04/10 19:08:19;;;;;;;4.70;2.75;;;;;;;13.66;41.29;94835.84;5040559;28;20032;-87
2023/04/10 19:10:45;;;;;;;4.35;2.80;;;;;;;13.55;41.68;94847.50;5058270;28;20040;-87
2023/04/10 19:13:11;;;;;;;6.88;3.60;;;;;;;13.33;41.96;94853.91;5040551;28;20033;-86
2023/04/10 19:15:46;;;;;;;8.82;3.55;;;;;;;13.55;41.02;94858.81;5023768;28;20041;-87
2023/04/10 19:18:11;;;;;;;6.90;2.95;;;;;;;13.25;41.21;94857.91;5023771;28;20048;-86
2023/04/10 19:20:38;;;;;;;9.27;4.25;;;;;;;13.52;40.71;94858.59;5040104;28;20028;-87
2023/04/10 19:23:03;;;;;;;7.60;3.58;;;;;;;13.49;40.88;94859.91;5024038;28;20032;-87
2023/04/10 19:25:29;;;;;;;6.68;3.70;;;;;;;13.58;40.54;94857.50;5023998;28;20128;-87
2023/04/10 19:27:54;;;;;;;8.15;3.88;;;;;;;13.32;40.74;94854.22;5040197;28;20037;-86
2023/04/10 19:30:20;;;;;;;7.65;3.88;;;;;;;13.41;41.35;94847.31;5039958;28;20087;-87
2023/04/10 19:32:45;;;;;;;6.57;3.58;;;;;;;13.32;41.46;94854.22;5023851;28;20032;-87
2023/04/10 19:35:11;;;;;;;7.22;3.50;;;;;;;13.31;40.90;94848.16;5023790;28;20033;-87
2023/04/10 19:37:36;;;;;;;7.35;3.78;;;;;;;13.22;41.83;94855.06;5040099;28;20037;-87
2023/04/10 19:40:02;;;;;;;7.65;4.05;;;;;;;12.66;42.83;94857.66;5057702;28;20029;-88
2023/04/10 19:42:27;;;;;;;6.80;3.63;;;;;;;12.80;42.05;94862.34;5023687;28;20032;-86
2023/04/10 19:44:53;;;;;;;6.82;3.15;;;;;;;13.08;41.98;94860.91;5027516;28;20032;-87
2023/04/10 19:47:21;;;;;;;7.35;3.63;;;;;;;13.34;41.61;94849.47;5077420;28;20086;-87
2023/04/10 19:49:47;;;;;;;5.78;3.05;;;;;;;13.31;41.73;94853.41;5077550;28;20078;-87
2023/04/10 19:52:12;;;;;;;7.63;4.00;;;;;;;13.41;41.58;94850.72;5043316;28;20032;-87
2023/04/10 19:54:37;;;;;;;6.18;2.90;;;;;;;13.24;41.16;94855.56;5059910;28;20085;-87
2023/04/10 19:57:03;;;;;;;4.45;2.85;;;;;;;13.22;42.16;94849.81;5059788;28;20081;-86
2023/04/10 19:59:28;;;;;;;4.68;2.53;;;;;;;12.90;42.19;94851.78;5057832;28;20039;-87
2023/04/10 20:01:54;;;;;;;5.35;2.70;;;;;;;12.78;42.87;94848.66;5035701;28;20329;-87
2023/04/10 20:04:20;;;;;;;5.30;2.42;;;;;;;12.97;42.08;94840.97;5059503;28;20425;-87
2023/04/10 20:07:03;;;;;;;5.20;2.90;;;;;;;13.25;42.01;94833.47;5042801;28;20033;-86
2023/04/10 20:09:28;;;;;;;6.03;3.05;;;;;;;13.07;41.12;94843.56;5033185;28;20033;-87
2023/04/10 20:11:53;;;;;;;7.05;3.10;;;;;;;13.18;40.24;94843.50;5023038;28;20110;-86
2023/04/10 20:14:19;;;;;;;5.65;2.80;;;;;;;12.93;40.10;94847.84;5039403;28;20033;-87
2023/04/10 20:16:45;;;;;;;7.45;3.30;;;;;;;13.08;39.15;94845.13;5059595;28;20036;-87
2023/04/10 20:19:10;;;;;;;5.63;2.85;;;;;;;13.18;38.40;94839.03;5034221;28;20384;-87
2023/04/10 20:21:36;;;;;;;4.72;2.83;;;;;;;13.28;38.29;94840.81;5059100;28;20440;-86
2023/04/10 20:24:01;;;;;;;7.50;2.85;;;;;;;13.20;38.65;94836.09;5076703;28;20082;-87
2023/04/10 20:26:27;;;;;;;5.97;3.10;;;;;;;13.38;37.96;94840.75;5059084;28;20417;-87
2023/04/10 20:28:52;;;;;;;5.03;2.83;;;;;;;13.41;37.91;94842.03;5059068;28;20415;-87
2023/04/10 20:31:18;;;;;;;6.93;2.45;;;;;;;13.51;37.90;94836.75;5059165;28;20445;-86
2023/04/10 20:33:43;;;;;;;4.32;2.30;;;;;;;13.48;37.57;94837.28;5076763;28;20107;-87
2023/04/10 20:36:09;;;;;;;4.68;2.63;;;;;;;13.37;37.73;94844.44;5058894;28;20310;-86
2023/04/10 20:38:34;;;;;;;4.97;2.58;;;;;;;13.33;37.68;94843.41;5076563;28;20040;-86
2023/04/10 20:41:00;;;;;;;4.70;2.60;;;;;;;13.11;38.02;94836.69;5076665;28;20350;-87
2023/04/10 20:43:25;;;;;;;3.92;2.25;;;;;;;13.28;38.94;94832.91;5058986;28;20353;-86
2023/04/10 20:45:51;;;;;;;5.25;2.83;;;;;;;13.06;39.14;94836.72;5058715;28;20025;-87
2023/04/10 20:48:16;;;;;;;4.47;2.65;;;;;;;12.86;38.75;94834.97;5042354;28;20036;-87
2023/04/10 20:50:43;;;;;;;7.57;2.78;;;;;;;13.18;38.30;94828.50;5076815;28;20036;-87
2023/04/10 20:53:09;;;;;;;4.55;2.55;;;;;;;12.89;40.38;94828.38;5042567;28;20039;-86
2023/04/10 20:55:38;;;;;;;5.45;2.75;;;;;;;12.98;40.21;94830.19;5058604;28;20037;-86
2023/04/10 20:58:04;;;;;;;8.30;2.63;;;;;;;13.10;39.28;94827.22;5058570;28;20381;-88
2023/04/10 21:00:30;;;;;;;4.00;2.40;;;;;;;12.94;39.83;94828.38;5058744;28;20028;-88
2023/04/10 21:02:56;;;;;;;4.07;2.00;;;;;;;12.57;40.83;94836.38;5058887;28;20033;-88
2023/04/10 21:05:21;;;;;;;5.53;2.50;;;;;;;11.96;41.60;94827.56;5059064;28;20032;-86
2023/04/10 21:07:46;;;;;;;4.90;2.67;;;;;;;12.16;40.26;94825.97;5076279;28;20033;-86
2023/04/10 21:10:12;;;;;;;8.18;2.85;;;;;;;12.10;41.08;94822.56;5058354;28;20384;-86
2023/04/10 21:12:37;;;;;;;4.25;2.22;;;;;;;12.17;40.40;94817.03;5044011;28;20448;-86
2023/04/10 21:15:03;;;;;;;5.28;2.22;;;;;;;12.51;39.84;94818.25;5080270;28;20112;-86
2023/04/10 21:17:30;;;;;;;6.47;2.50;;;;;;;12.54;39.97;94813.28;5045973;28;20036;-87
2023/04/10 21:19:59;;;;;;;5.10;2.42;;;;;;;12.59;39.44;94813.25;5062719;28;20032;-86
2023/04/10 21:22:25;;;;;;;5.07;2.05;;;;;;;12.53;38.60;94814.31;5062324;28;20127;-86
2023/04/10 21:24:50;;;;;;;5.38;2.53;;;;;;;12.50;38.62;94820.13;5062240;28;20407;-86
2023/04/10 21:27:16;;;;;;;4.03;2.13;;;;;;;12.55;38.44;94816.66;5062206;28;20338;-86
2023/04/10 21:29:41;;;;;;;4.13;2.33;;;;;;;12.57;38.31;94820.63;5079935;28;20039;-86
2023/04/10 21:32:07;;;;;;;4.63;2.13;;;;;;;12.41;38.90;94819.09;5045738;28;20119;-87
2023/04/10 21:34:32;;;;;;;2.85;1.83;;;;;;;12.69;38.37;94825.56;5045985;28;20345;-87
2023/04/10 21:36:58;;;;;;;3.20;2.03;;;;;;;12.62;38.97;94832.16;5080067;28;20417;-87
2023/04/10 21:39:23;;;;;;;5.07;2.47;;;;;;;12.66;38.55;94828.72;5061988;28;20123;-86
2023/04/10 21:41:48;;;;;;;6.65;2.47;;;;;;;12.87;38.50;94831.28;5045621;28;20341;-87
2023/04/10 21:44:14;;;;;;;5.93;2.78;;;;;;;12.92;38.12;94825.22;5045766;28;20219;-87
2023/04/10 21:46:39;;;;;;;5.85;2.50;;;;;;;12.97;37.99;94828.59;5062120;28;20021;-86
2023/04/10 21:49:05;;;;;;;3.88;2.40;;;;;;;13.09;37.81;94832.75;5079564;28;20435;-86
2023/04/10 21:51:31;;;;;;;3.35;2.10;;;;;;;12.94;38.42;94834.41;5045471;28;20101;-86
2023/04/10 21:53:57;;;;;;;3.70;2.10;;;;;;;12.86;38.45;94834.97;5061896;28;20077;-87
2023/04/10 21:56:22;;;;;;;3.28;2.10;;;;;;;12.38;40.33;94843.28;5061860;28;20036;-87
2023/04/10 21:58:47;;;;;;;4.13;2.05;;;;;;;12.15;40.70;94840.16;5061825;28;20033;-87
2023/04/10 22:01:13;;;;;;;3.50;2.40;;;;;;;12.36;40.93;94834.88;5045429;28;20421;-86
2023/04/10 22:03:38;;;;;;;4.05;1.85;;;;;;;12.77;40.13;94842.66;5061581;28;20349;-86
2023/04/10 22:06:04;;;;;;;4.25;2.20;;;;;;;12.86;39.71;94827.88;5061601;28;20114;-86
2023/04/10 22:08:30;;;;;;;3.47;2.25;;;;;;;12.73;39.32;94828.44;5061293;28;20031;-87
2023/04/10 22:10:55;;;;;;;3.60;2.10;;;;;;;12.85;38.94;94841.28;5061918;28;20139;-87
2023/04/10 22:13:20;;;;;;;3.22;2.28;;;;;;;13.02;38.74;94830.41;5045227;28;20077;-87
2023/04/10 22:15:47;;;;;;;5.00;2.45;;;;;;;13.21;38.32;94835.84;5045112;28;20337;-86
2023/04/10 22:18:12;;;;;;;4.13;2.42;;;;;;;13.24;38.28;94839.78;5061347;28;20044;-86
2023/04/10 22:20:38;;;;;;;11.55;2.80;;;;;;;12.80;38.67;94833.41;5061581;28;20037;-86
2023/04/10 22:23:03;;;;;;;4.80;2.55;;;;;;;13.34;37.82;94838.94;5060602;28;20032;-87
2023/04/10 22:25:29;;;;;;;4.55;2.40;;;;;;;13.41;38.01;94831.50;5061382;28;20028;-87
2023/04/10 22:27:56;;;;;;;5.13;2.25;;;;;;;13.58;37.49;94825.91;5061279;28;20032;-86
2023/04/10 22:30:22;;;;;;;3.60;2.03;;;;;;;13.49;37.79;94828.34;5061251;28;20035;-87
2023/04/10 22:32:47;;;;;;;4.53;2.40;;;;;;;13.39;37.82;94817.84;5061357;28;20115;-87
2023/04/10 22:35:12;;;;;;;3.83;1.83;;;;;;;13.41;38.04;94819.16;5061111;28;20028;-87
2023/04/10 22:37:38;;;;;;;5.25;2.13;;;;;;;13.12;39.79;94813.78;5044746;28;20047;-87
2023/04/10 22:40:04;;;;;;;4.18;2.20;;;;;;;12.95;40.45;94814.94;5044348;28;20046;-87
2023/04/10 22:42:30;;;;;;;4.50;2.33;;;;;;;13.05;38.85;94811.47;5061171;28;20035;-87
2023/04/10 22:44:55;;;;;;;5.40;2.13;;;;;;;13.09;39.54;94809.88;5061048;28;20032;-86
2023/04/10 22:47:20;;;;;;;3.70;2.38;;;;;;;13.01;40.22;94805.19;5060977;28;20024;-87
2023/04/10 22:49:46;;;;;;;4.45;2.20;;;;;;;12.90;40.46;94801.03;5061294;28;20421;-87
2023/04/10 22:52:12;;;;;;;3.72;1.90;;;;;;;13.03;39.20;94805.69;5044540;28;20127;-87
2023/04/10 22:54:37;;;;;;;3.95;2.10;;;;;;;12.82;39.79;94808.44;5044378;28;20025;-86
2023/04/10 22:57:03;;;;;;;2.65;1.70;;;;;;;13.19;39.87;94805.59;5060543;28;20027;-86
2023/04/10 22:59:29;;;;;;;4.97;2.35;;;;;;;12.99;40.84;94812.56;5060402;28;20051;-86
2023/04/10 23:01:54;;;;;;;5.20;2.45;;;;;;;12.63;40.57;94823.25;5060430;28;20024;-86
2023/04/10 23:04:20;;;;;;;3.30;2.03;;;;;;;12.50;41.61;94822.75;5043739;28;20024;-87
2023/04/10 23:06:48;;;;;;;3.85;1.90;;;;;;;12.90;40.54;94812.34;5060392;28;20366;-86
2023/04/10 23:09:13;;;;;;;3.15;1.80;;;;;;;12.78;40.31;94822.38;5043758;28;20070;-86
2023/04/10 23:11:39;;;;;;;4.15;2.08;;;;;;;12.68;40.70;94820.59;5060202;28;20036;-86
2023/04/10 23:14:04;;;;;;;5.22;1.90;;;;;;;11.87;41.91;94813.38;5060212;28;20028;-87
2023/04/10 23:16:30;;;;;;;3.85;2.40;;;;;;;11.68;42.83;94813.91;5078209;28;20025;-86
2023/04/10 23:18:55;;;;;;;3.65;2.10;;;;;;;11.66;42.84;94808.13;5043606;28;20035;-87
2023/04/10 23:21:20;;;;;;;4.13;2.13;;;;;;;11.59;43.07;94823.34;5043750;28;20169;-86
2023/04/10 23:23:46;;;;;;;3.28;2.13;;;;;;;12.12;41.80;94819.69;5059995;28;20064;-86
2023/04/10 23:26:11;;;;;;;4.32;2.15;;;;;;;12.29;41.73;94824.66;5059990;28;20031;-86
2023/04/10 23:28:37;;;;;;;5.28;2.08;;;;;;;12.30;42.05;94827.00;5059902;28;20437;-86
2023/04/10 23:31:02;;;;;;;4.53;2.17;;;;;;;12.44;42.92;94831.69;5059971;28;20028;-87
2023/04/10 23:33:27;;;;;;;6.15;2.20;;;;;;;12.44;41.93;94823.81;5059983;28;20044;-87
2023/04/10 23:35:53;;;;;;;4.05;2.00;;;;;;;11.96;42.03;94818.88;5076943;28;20028;-86